createdAt,value
2023-03-10T00:00:41.916Z,8.40
2023-03-10T00:03:11.316Z,8.40
2023-03-10T00:05:39.716Z,8.30
2023-03-10T00:08:08.224Z,8.30
2023-03-10T00:10:36.117Z,8.30
2023-03-10T00:13:03.916Z,8.30
2023-03-10T00:15:31.783Z,8.30
2023-03-10T00:17:59.579Z,8.20
2023-03-10T00:20:28.834Z,8.20
2023-03-10T00:22:56.784Z,8.30
2023-03-10T00:25:24.590Z,8.40
2023-03-10T00:27:53.556Z,8.50
2023-03-10T00:30:21.558Z,8.60
2023-03-10T00:32:50.864Z,8.70
2023-03-10T00:35:18.929Z,8.70
2023-03-10T00:37:48.117Z,8.80
2023-03-10T00:40:16.489Z,8.90
2023-03-10T00:42:50.252Z,8.90
2023-03-10T00:45:18.453Z,9.00
2023-03-10T00:47:46.293Z,9.10
2023-03-10T00:50:14.080Z,9.00
2023-03-10T00:52:41.943Z,9.10
2023-03-10T00:55:11.318Z,9.10
2023-03-10T00:57:39.216Z,9.10
2023-03-10T01:00:08.719Z,9.10
2023-03-10T01:02:36.531Z,9.10
2023-03-10T01:05:04.607Z,9.10
2023-03-10T01:07:32.396Z,9.50
2023-03-10T01:10:00.190Z,9.40
2023-03-10T01:12:29.357Z,9.50
2023-03-10T01:14:57.254Z,9.50
2023-03-10T01:17:25.175Z,9.40
2023-03-10T01:19:52.984Z,9.30
2023-03-10T01:22:20.825Z,9.20
2023-03-10T01:24:48.693Z,9.20
2023-03-10T01:27:16.639Z,9.20
2023-03-10T01:29:45.767Z,9.10
2023-03-10T01:32:13.653Z,9.10
2023-03-10T01:34:41.543Z,9.00
2023-03-10T01:37:09.416Z,9.00
2023-03-10T01:39:37.640Z,8.90
2023-03-10T01:42:05.916Z,8.90
2023-03-10T01:44:33.985Z,8.80
2023-03-10T01:47:03.297Z,8.70
2023-03-10T01:49:37.789Z,8.60
2023-03-10T01:52:11.428Z,8.60
2023-03-10T01:54:46.628Z,8.50
2023-03-10T01:57:15.960Z,8.40
2023-03-10T01:59:44.488Z,8.30
2023-03-10T02:02:14.065Z,8.10
2023-03-10T02:04:44.851Z,8.10
2023-03-10T02:07:16.917Z,8.00
2023-03-10T02:09:47.473Z,7.80
2023-03-10T02:12:16.397Z,7.70
2023-03-10T02:14:45.635Z,7.70
2023-03-10T02:17:19.034Z,7.70
2023-03-10T02:20:11.067Z,7.70
2023-03-10T02:22:40.333Z,7.50
2023-03-10T02:25:15.320Z,7.50
2023-03-10T02:27:45.094Z,7.40
2023-03-10T02:30:15.846Z,7.50
2023-03-10T02:32:49.292Z,7.50
2023-03-10T02:35:17.194Z,7.50
2023-03-10T02:37:45.146Z,7.40
2023-03-10T02:40:33.876Z,7.50
2023-03-10T02:43:06.700Z,7.40
2023-03-10T02:45:38.783Z,7.30
2023-03-10T02:48:07.991Z,7.40
2023-03-10T02:50:39.683Z,7.40
2023-03-10T02:53:12.694Z,7.40
2023-03-10T02:55:40.684Z,7.30
2023-03-10T02:58:10.334Z,7.40
2023-03-10T03:00:39.094Z,7.40
2023-03-10T03:03:07.034Z,7.40
2023-03-10T03:05:35.293Z,7.40
2023-03-10T03:08:03.140Z,7.50
2023-03-10T03:10:31.073Z,7.50
2023-03-10T03:12:58.922Z,7.50
2023-03-10T03:15:28.266Z,7.50
2023-03-10T03:17:58.563Z,7.40
2023-03-10T03:20:27.241Z,7.40
2023-03-10T03:22:55.603Z,7.40
2023-03-10T03:25:25.027Z,7.50
2023-03-10T03:27:53.106Z,7.60
2023-03-10T03:30:23.803Z,7.60
2023-03-10T03:32:53.850Z,7.60
2023-03-10T03:35:24.409Z,7.70
2023-03-10T03:37:52.998Z,7.70
2023-03-10T03:40:22.422Z,7.80
2023-03-10T03:42:52.521Z,7.70
2023-03-10T03:45:22.712Z,7.70
2023-03-10T03:47:52.168Z,7.70
2023-03-10T03:50:21.742Z,7.70
2023-03-10T03:52:49.706Z,7.60
2023-03-10T03:55:18.781Z,7.60
2023-03-10T03:57:47.548Z,7.70
2023-03-10T04:00:20.353Z,7.70
2023-03-10T04:02:48.416Z,7.70
2023-03-10T04:05:17.984Z,7.80
2023-03-10T04:07:46.128Z,7.80
2023-03-10T04:10:15.843Z,7.80
2023-03-10T04:12:43.771Z,7.90
2023-03-10T04:15:12.484Z,7.90
2023-03-10T04:17:40.391Z,7.90
2023-03-10T04:20:09.755Z,7.70
2023-03-10T04:22:38.937Z,7.60
2023-03-10T04:25:08.631Z,7.60
2023-03-10T04:27:36.558Z,7.60
2023-03-10T04:30:05.844Z,7.60
2023-03-10T04:32:33.750Z,7.70
2023-03-10T04:35:01.833Z,7.80
2023-03-10T04:37:29.984Z,7.70
2023-03-10T04:39:59.211Z,7.80
2023-03-10T04:42:28.142Z,7.80
2023-03-10T04:44:55.993Z,7.80
2023-03-10T04:47:23.839Z,7.90
2023-03-10T04:49:51.765Z,7.80
2023-03-10T04:52:19.716Z,7.80
2023-03-10T04:54:47.594Z,7.80
2023-03-10T04:57:16.833Z,7.80
2023-03-10T04:59:44.945Z,7.80
2023-03-10T05:02:12.770Z,7.80
2023-03-10T05:04:40.719Z,7.80
2023-03-10T05:07:08.602Z,7.80
2023-03-10T05:09:37.232Z,7.80
2023-03-10T05:12:06.569Z,7.80
2023-03-10T05:14:35.734Z,7.80
2023-03-10T05:17:04.013Z,7.80
2023-03-10T05:19:31.896Z,7.70
2023-03-10T05:21:59.707Z,7.70
2023-03-10T05:24:27.543Z,7.60
2023-03-10T05:26:55.456Z,7.50
2023-03-10T05:29:23.477Z,7.40
2023-03-10T05:31:52.643Z,7.40
2023-03-10T05:34:20.495Z,7.20
2023-03-10T05:36:48.298Z,7.10
2023-03-10T05:39:16.130Z,7.10
2023-03-10T05:41:43.974Z,7.00
2023-03-10T05:44:11.815Z,6.90
2023-03-10T05:46:39.693Z,6.90
2023-03-10T05:49:09.069Z,6.90
2023-03-10T05:51:36.982Z,6.80
2023-03-10T05:54:06.155Z,6.80
2023-03-10T05:56:34.266Z,6.90
2023-03-10T05:59:02.923Z,6.90
2023-03-10T06:01:30.966Z,6.90
2023-03-10T06:03:58.866Z,6.90
2023-03-10T06:06:28.400Z,7.00
2023-03-10T06:08:56.630Z,7.00
2023-03-10T06:11:24.813Z,6.90
2023-03-10T06:13:52.644Z,6.90
2023-03-10T06:16:20.591Z,6.90
2023-03-10T06:18:48.488Z,6.90
2023-03-10T06:21:16.444Z,6.80
2023-03-10T06:23:45.660Z,6.90
2023-03-10T06:26:16.523Z,6.90
2023-03-10T06:28:46.064Z,6.90
2023-03-10T06:31:16.296Z,7.00
2023-03-10T06:33:44.693Z,7.10
2023-03-10T06:36:15.339Z,7.10
2023-03-10T06:38:43.554Z,7.30
2023-03-10T06:41:12.926Z,7.30
2023-03-10T06:43:41.542Z,7.50
2023-03-10T06:46:11.367Z,7.60
2023-03-10T06:48:40.379Z,7.60
2023-03-10T06:51:09.685Z,7.60
2023-03-10T06:53:37.785Z,7.60
2023-03-10T06:56:08.277Z,7.60
2023-03-10T06:58:38.261Z,7.60
2023-03-10T07:01:07.542Z,7.60
2023-03-10T07:03:35.950Z,7.70
2023-03-10T07:06:04.938Z,7.70
2023-03-10T07:08:32.894Z,7.70
2023-03-10T07:11:00.697Z,7.70
2023-03-10T07:13:28.563Z,7.70
2023-03-10T07:15:57.904Z,7.80
2023-03-10T07:18:27.805Z,7.80
2023-03-10T07:20:55.628Z,7.80
2023-03-10T07:23:23.751Z,7.90
2023-03-10T07:25:53.611Z,7.90
2023-03-10T07:28:21.533Z,8.00
2023-03-10T07:30:49.589Z,8.00
2023-03-10T07:33:19.087Z,8.10
2023-03-10T07:35:47.040Z,8.10
2023-03-10T07:38:14.935Z,8.10
2023-03-10T07:40:43.119Z,8.20
2023-03-10T07:43:10.937Z,8.20
2023-03-10T07:45:39.778Z,7.90
2023-03-10T07:48:08.221Z,7.70
2023-03-10T07:50:37.380Z,7.60
2023-03-10T07:53:05.258Z,7.50
2023-03-10T07:55:33.197Z,7.50
2023-03-10T07:58:01.306Z,7.30
2023-03-10T08:00:29.483Z,7.20
2023-03-10T08:02:57.306Z,7.20
2023-03-10T08:05:25.238Z,7.10
2023-03-10T08:07:54.406Z,7.00
2023-03-10T08:10:22.305Z,7.00
2023-03-10T08:12:50.134Z,6.90
2023-03-10T08:15:18.174Z,6.90
2023-03-10T08:17:45.997Z,7.00
2023-03-10T08:20:14.256Z,7.10
2023-03-10T08:22:42.072Z,7.20
2023-03-10T08:25:12.513Z,7.30
2023-03-10T08:27:41.518Z,7.40
2023-03-10T08:30:10.643Z,7.40
2023-03-10T08:32:38.670Z,7.50
2023-03-10T08:35:08.223Z,7.60
2023-03-10T08:37:36.035Z,7.60
2023-03-10T08:40:08.195Z,7.60
2023-03-10T08:42:37.466Z,7.70
2023-03-10T08:45:08.538Z,7.90
2023-03-10T08:47:36.959Z,8.20
2023-03-10T08:50:05.682Z,8.30
2023-03-10T08:52:34.037Z,8.30
2023-03-10T08:55:01.848Z,8.20
2023-03-10T08:57:29.710Z,8.20
2023-03-10T08:59:58.912Z,8.40
2023-03-10T09:02:29.391Z,8.70
2023-03-10T09:04:57.322Z,8.40
2023-03-10T09:07:25.159Z,8.40
2023-03-10T09:09:52.961Z,8.50
2023-03-10T09:12:20.789Z,8.70
2023-03-10T09:14:48.799Z,8.60
2023-03-10T09:17:17.984Z,8.50
2023-03-10T09:19:45.771Z,8.40
2023-03-10T09:22:13.588Z,8.00
2023-03-10T09:24:41.472Z,8.10
2023-03-10T09:27:09.291Z,8.00
2023-03-10T09:29:43.143Z,7.90
2023-03-10T09:32:11.848Z,7.70
2023-03-10T09:34:41.804Z,7.30
2023-03-10T09:37:09.851Z,7.20
2023-03-10T09:39:37.703Z,7.10
2023-03-10T09:42:38.283Z,7.10
2023-03-10T09:45:24.090Z,7.20
2023-03-10T09:48:08.598Z,7.20
2023-03-10T09:50:43.324Z,7.20
2023-03-10T09:53:26.539Z,7.20
2023-03-10T09:55:54.639Z,7.20
2023-03-10T09:58:31.299Z,7.10
2023-03-10T10:01:00.167Z,7.20
2023-03-10T10:03:46.378Z,7.20
2023-03-10T10:06:28.027Z,7.30
2023-03-10T10:09:04.742Z,7.30
2023-03-10T10:11:34.257Z,7.40
2023-03-10T10:14:27.710Z,7.50
2023-03-10T10:17:04.809Z,7.50
2023-03-10T10:19:36.318Z,7.70
2023-03-10T10:22:11.389Z,7.80
2023-03-10T10:24:40.619Z,7.90
2023-03-10T10:27:08.500Z,7.80
2023-03-10T10:29:37.997Z,7.90
2023-03-10T10:32:09.874Z,7.70
2023-03-10T10:34:39.444Z,7.90
2023-03-10T10:37:25.117Z,7.90
2023-03-10T10:39:54.617Z,8.00
2023-03-10T10:42:25.059Z,7.90
2023-03-10T10:44:54.863Z,7.80
2023-03-10T10:47:29.286Z,7.70
2023-03-10T10:50:10.532Z,7.80
2023-03-10T10:52:41.633Z,7.80
2023-03-10T10:55:27.336Z,7.60
2023-03-10T10:57:57.832Z,7.70
2023-03-10T11:00:28.312Z,7.90
2023-03-10T11:02:56.998Z,8.00
2023-03-10T11:05:32.676Z,7.90
2023-03-10T11:08:18.789Z,7.90
2023-03-10T11:10:52.047Z,8.10
2023-03-10T11:13:25.810Z,7.90
2023-03-10T11:16:00.944Z,8.20
2023-03-10T11:18:32.604Z,8.30
2023-03-10T11:21:07.391Z,8.30
2023-03-10T11:23:43.224Z,8.40
2023-03-10T11:26:23.525Z,8.40
2023-03-10T11:28:55.468Z,8.10
2023-03-10T11:31:35.169Z,8.00
2023-03-10T11:34:16.845Z,8.00
2023-03-10T11:36:56.834Z,8.00
2023-03-10T11:39:41.622Z,8.00
2023-03-10T11:42:17.218Z,8.20
2023-03-10T11:44:55.843Z,8.50
2023-03-10T11:47:40.746Z,8.60
2023-03-10T11:50:20.502Z,8.20
2023-03-10T11:52:49.442Z,8.10
2023-03-10T11:55:21.865Z,8.20
2023-03-10T11:57:54.084Z,8.10
2023-03-10T12:00:28.444Z,8.30
2023-03-10T12:03:12.396Z,8.50
2023-03-10T12:05:51.829Z,8.90
2023-03-10T12:08:23.741Z,9.00
2023-03-10T12:10:55.183Z,8.90
2023-03-10T12:13:27.002Z,8.60
2023-03-10T12:15:59.605Z,8.50
2023-03-10T12:18:28.009Z,8.30
2023-03-10T12:21:18.999Z,8.30
2023-03-10T12:23:48.250Z,8.30
2023-03-10T12:26:56.052Z,8.20
2023-03-10T12:29:32.709Z,8.00
2023-03-10T12:32:00.862Z,8.10
2023-03-10T12:34:34.399Z,8.10
2023-03-10T12:37:08.282Z,8.20
2023-03-10T12:39:41.558Z,8.10
2023-03-10T12:42:31.401Z,7.80
2023-03-10T12:45:17.097Z,7.70
2023-03-10T12:47:54.739Z,7.70
2023-03-10T12:50:34.127Z,7.50
2023-03-10T12:53:16.501Z,7.50
2023-03-10T12:55:44.378Z,7.30
2023-03-10T12:58:18.480Z,7.30
2023-03-10T13:00:50.589Z,7.20
2023-03-10T13:03:31.288Z,7.30
2023-03-10T13:06:02.956Z,7.20
2023-03-10T13:08:45.426Z,6.80
2023-03-10T13:11:28.299Z,6.70
2023-03-10T13:14:01.326Z,6.70
2023-03-10T13:16:30.591Z,6.80
2023-03-10T13:19:00.507Z,6.90
2023-03-10T13:21:31.277Z,7.00
2023-03-10T13:24:00.418Z,7.20
2023-03-10T13:26:28.678Z,7.10
2023-03-10T13:29:00.368Z,7.10
2023-03-10T13:31:30.233Z,7.10
2023-03-10T13:33:59.145Z,7.10
2023-03-10T13:36:34.797Z,7.10
2023-03-10T13:39:15.768Z,6.90
2023-03-10T13:41:46.679Z,6.80
2023-03-10T13:44:21.098Z,6.80
2023-03-10T13:46:51.726Z,6.70
2023-03-10T13:49:22.127Z,6.70
2023-03-10T13:51:54.767Z,6.70
2023-03-10T13:54:24.524Z,6.60
2023-03-10T13:56:53.705Z,6.60
2023-03-10T13:59:26.467Z,6.60
2023-03-10T14:01:57.283Z,6.60
2023-03-10T14:04:46.367Z,6.70
2023-03-10T14:07:17.967Z,6.70
2023-03-10T14:09:47.439Z,6.70
2023-03-10T14:12:16.501Z,6.60
2023-03-10T14:14:45.683Z,6.60
2023-03-10T14:17:31.885Z,6.60
2023-03-10T14:19:59.736Z,6.60
2023-03-10T14:22:35.300Z,6.50
2023-03-10T14:25:06.901Z,6.60
2023-03-10T14:27:35.928Z,6.50
2023-03-10T14:30:18.547Z,6.60
2023-03-10T14:32:46.780Z,6.70
2023-03-10T14:35:16.035Z,6.80
2023-03-10T14:37:43.866Z,6.80
2023-03-10T14:40:13.225Z,6.80
2023-03-10T14:42:42.446Z,6.90
2023-03-10T14:45:23.736Z,6.90
2023-03-10T14:47:52.315Z,7.00
2023-03-10T14:50:21.697Z,7.00
2023-03-10T14:52:49.572Z,6.90
2023-03-10T14:55:17.935Z,6.90
2023-03-10T14:57:47.920Z,6.70
2023-03-10T15:00:20.013Z,6.70
2023-03-10T15:02:49.111Z,6.70
2023-03-10T15:05:17.913Z,6.60
2023-03-10T15:07:47.359Z,6.40
2023-03-10T15:10:15.849Z,6.10
2023-03-10T15:12:44.945Z,5.90
2023-03-10T15:15:19.027Z,5.80
2023-03-10T15:17:47.210Z,5.70
2023-03-10T15:20:19.259Z,5.60
2023-03-10T15:22:47.803Z,5.40
2023-03-10T15:25:17.384Z,5.30
2023-03-10T15:27:46.816Z,5.30
2023-03-10T15:30:21.268Z,5.30
2023-03-10T15:32:49.371Z,5.40
2023-03-10T15:35:17.560Z,5.50
2023-03-10T15:37:45.793Z,5.60
2023-03-10T15:40:17.483Z,5.60
2023-03-10T15:42:46.166Z,5.50
2023-03-10T15:45:14.964Z,5.50
2023-03-10T15:47:44.265Z,5.50
2023-03-10T15:50:14.004Z,5.50
2023-03-10T15:52:46.894Z,5.60
2023-03-10T15:55:16.602Z,5.70
2023-03-10T15:57:44.978Z,5.90
2023-03-10T16:00:16.861Z,5.90
2023-03-10T16:02:46.703Z,5.90
2023-03-10T16:05:15.058Z,5.80
2023-03-10T16:07:42.908Z,5.60
2023-03-10T16:10:12.567Z,5.60
2023-03-10T16:12:40.707Z,5.40
2023-03-10T16:15:09.852Z,5.00
2023-03-10T16:17:37.708Z,4.80
2023-03-10T16:20:12.103Z,4.80
2023-03-10T16:22:41.670Z,4.80
2023-03-10T16:25:11.607Z,4.70
2023-03-10T16:27:39.467Z,4.70
2023-03-10T16:30:09.120Z,4.80
2023-03-10T16:32:37.224Z,4.90
2023-03-10T16:35:07.801Z,5.00
2023-03-10T16:37:35.694Z,4.90
2023-03-10T16:40:04.433Z,4.80
2023-03-10T16:42:35.797Z,4.60
2023-03-10T16:45:04.011Z,4.50
2023-03-10T16:47:31.939Z,4.40
2023-03-10T16:49:59.793Z,4.40
2023-03-10T16:52:29.078Z,4.40
2023-03-10T16:54:58.468Z,4.40
2023-03-10T16:57:26.361Z,4.10
2023-03-10T16:59:54.269Z,3.80
2023-03-10T17:02:22.140Z,3.60
2023-03-10T17:04:50.053Z,3.40
2023-03-10T17:07:19.249Z,3.60
2023-03-10T17:09:49.444Z,3.60
2023-03-10T17:12:17.617Z,3.60
2023-03-10T17:14:45.597Z,3.70
2023-03-10T17:17:14.052Z,3.80
2023-03-10T17:19:41.887Z,3.80
2023-03-10T17:22:09.812Z,3.80
2023-03-10T17:24:37.688Z,3.70
2023-03-10T17:27:07.389Z,3.60
2023-03-10T17:29:35.223Z,3.60
2023-03-10T17:32:03.179Z,3.70
2023-03-10T17:34:31.171Z,3.70
2023-03-10T17:36:59.262Z,3.70
2023-03-10T17:39:27.985Z,3.80
2023-03-10T17:41:55.849Z,3.80
2023-03-10T17:44:25.158Z,3.90
2023-03-10T17:46:55.868Z,4.00
2023-03-10T17:49:23.926Z,4.00
2023-03-10T17:51:51.889Z,3.90
2023-03-10T17:54:21.810Z,4.00
2023-03-10T17:56:50.746Z,4.00
2023-03-10T17:59:19.170Z,3.90
2023-03-10T18:01:49.574Z,3.90
2023-03-10T18:04:17.830Z,4.00
2023-03-10T18:06:45.735Z,4.10
2023-03-10T18:09:16.837Z,4.20
2023-03-10T18:11:44.759Z,4.10
2023-03-10T18:14:14.125Z,4.30
2023-03-10T18:16:42.308Z,4.30
2023-03-10T18:19:11.648Z,4.40
2023-03-10T18:21:39.712Z,4.40
2023-03-10T18:24:08.800Z,4.40
2023-03-10T18:26:37.954Z,4.30
2023-03-10T18:29:06.080Z,4.30
2023-03-10T18:31:35.402Z,4.30
2023-03-10T18:34:04.058Z,4.30
2023-03-10T18:36:33.791Z,4.30
2023-03-10T18:39:03.958Z,4.20
2023-03-10T18:41:32.780Z,4.20
2023-03-10T18:44:01.111Z,4.10
2023-03-10T18:46:28.990Z,4.10
2023-03-10T18:48:56.950Z,4.00
2023-03-10T18:51:25.839Z,3.90
2023-03-10T18:53:55.420Z,3.70
2023-03-10T18:56:25.776Z,3.60
2023-03-10T18:58:53.891Z,3.40
2023-03-10T19:01:22.454Z,3.40
2023-03-10T19:03:50.321Z,3.40
2023-03-10T19:06:18.328Z,3.40
2023-03-10T19:08:46.189Z,3.40
2023-03-10T19:11:15.805Z,3.40
2023-03-10T19:13:45.007Z,3.40
2023-03-10T19:16:13.368Z,3.30
2023-03-10T19:18:41.523Z,3.20
2023-03-10T19:21:10.541Z,3.10
2023-03-10T19:23:38.401Z,2.90
2023-03-10T19:26:07.063Z,2.80
2023-03-10T19:28:36.571Z,2.80
2023-03-10T19:31:09.912Z,2.70
2023-03-10T19:33:39.764Z,2.60
2023-03-10T19:36:11.706Z,2.50
2023-03-10T19:38:41.169Z,2.50
2023-03-10T19:41:13.088Z,2.50
2023-03-10T19:43:42.314Z,2.50
2023-03-10T19:46:12.481Z,2.60
2023-03-10T19:48:40.980Z,2.60
2023-03-10T19:51:09.303Z,2.70
2023-03-10T19:53:37.209Z,2.70
2023-03-10T19:56:07.622Z,2.70
2023-03-10T19:58:35.589Z,2.80
2023-03-10T20:01:05.246Z,2.70
2023-03-10T20:03:34.140Z,2.70
2023-03-10T20:06:04.140Z,2.70
2023-03-10T20:08:31.971Z,2.80
2023-03-10T20:11:02.100Z,2.90
2023-03-10T20:13:30.301Z,2.90
2023-03-10T20:15:58.814Z,2.80
2023-03-10T20:18:29.026Z,2.80
2023-03-10T20:20:56.907Z,2.80
2023-03-10T20:23:25.092Z,2.80
2023-03-10T20:26:01.357Z,2.80
2023-03-10T20:28:29.816Z,2.70
2023-03-10T20:30:57.778Z,2.70
2023-03-10T20:33:25.696Z,2.50
2023-03-10T20:35:55.283Z,2.50
2023-03-10T20:38:23.442Z,2.40
2023-03-10T20:40:51.287Z,2.40
2023-03-10T20:43:19.191Z,2.30
2023-03-10T20:45:47.011Z,2.40
2023-03-10T20:48:14.910Z,2.40
2023-03-10T20:50:42.693Z,2.40
2023-03-10T20:53:12.396Z,2.40
2023-03-10T20:55:42.915Z,2.40
2023-03-10T20:58:10.727Z,2.20
2023-03-10T21:00:38.648Z,2.10
2023-03-10T21:03:06.619Z,1.70
2023-03-10T21:05:34.407Z,1.40
2023-03-10T21:08:02.311Z,1.10
2023-03-10T21:10:32.831Z,1.00
2023-03-10T21:13:00.692Z,1.00
2023-03-10T21:15:28.503Z,1.00
2023-03-10T21:17:56.613Z,0.90
2023-03-10T21:20:25.311Z,0.70
2023-03-10T21:22:53.207Z,0.70
2023-03-10T21:25:23.551Z,0.70
2023-03-10T21:27:56.352Z,0.70
2023-03-10T21:30:24.746Z,0.60
2023-03-10T21:32:52.717Z,0.60
2023-03-10T21:35:20.839Z,0.60
2023-03-10T21:37:49.437Z,0.50
2023-03-10T21:40:20.722Z,0.50
2023-03-10T21:42:49.377Z,0.40
2023-03-10T21:45:21.349Z,0.40
2023-03-10T21:47:49.234Z,0.40
2023-03-10T21:50:17.682Z,0.60
2023-03-10T21:52:46.186Z,0.50
2023-03-10T21:55:19.510Z,0.50
2023-03-10T21:57:47.861Z,0.50
2023-03-10T22:00:20.006Z,0.40
2023-03-10T22:02:48.513Z,0.60
2023-03-10T22:05:18.615Z,0.60
2023-03-10T22:07:46.867Z,0.60
2023-03-10T22:10:15.649Z,0.60
2023-03-10T22:12:43.483Z,0.60
2023-03-10T22:15:16.790Z,0.70
2023-03-10T22:17:46.096Z,0.70
2023-03-10T22:20:18.361Z,0.80
2023-03-10T22:22:46.348Z,0.80
2023-03-10T22:25:14.920Z,0.70
2023-03-10T22:27:43.135Z,0.70
2023-03-10T22:30:14.031Z,0.70
2023-03-10T22:32:42.277Z,0.80
2023-03-10T22:35:11.775Z,0.80
2023-03-10T22:37:40.662Z,0.80
2023-03-10T22:40:11.005Z,0.90
2023-03-10T22:42:39.426Z,0.80
2023-03-10T22:45:11.267Z,0.80
2023-03-10T22:47:39.238Z,0.80
2023-03-10T22:50:07.912Z,0.80
2023-03-10T22:52:37.090Z,0.80
2023-03-10T22:55:05.170Z,0.80
2023-03-10T22:57:32.990Z,0.90
2023-03-10T23:00:00.829Z,0.80
2023-03-10T23:02:28.632Z,0.80
2023-03-10T23:04:57.275Z,0.90
2023-03-10T23:07:25.122Z,0.90
2023-03-10T23:09:54.304Z,0.80
2023-03-10T23:12:22.225Z,0.90
2023-03-10T23:14:50.042Z,0.70
2023-03-10T23:17:17.867Z,0.70
2023-03-10T23:19:48.036Z,0.70
2023-03-10T23:22:15.902Z,0.70
2023-03-10T23:24:43.690Z,0.70
2023-03-10T23:27:13.076Z,0.60
2023-03-10T23:29:40.915Z,0.60
2023-03-10T23:32:09.351Z,0.60
2023-03-10T23:34:37.369Z,0.70
2023-03-10T23:37:05.565Z,0.80
2023-03-10T23:39:33.394Z,0.70
2023-03-10T23:42:01.256Z,0.70
2023-03-10T23:44:30.434Z,0.70
2023-03-10T23:46:58.381Z,0.70
2023-03-10T23:49:26.264Z,0.70
2023-03-10T23:51:54.452Z,0.70
2023-03-10T23:54:22.816Z,0.70
2023-03-10T23:56:51.354Z,0.70
2023-03-10T23:59:19.190Z,0.70
